Terminal Aerodrome Forecast
Issued by NWS

Home | Current Version | Previous Version | Text Only | Print | Product List | Glossary On
Versions: 1 2 3 4 5 6 7 8 9 10 11 12 13 14 15 16 17 18 19 20 21 22 23 24 25
000
FTUS46 KEKA 252341
TAFCEC
TAF
KCEC 252341Z 2600/2624 20009KT P6SM BKN008
      TEMPO 2601/2603 FEW005 SCT008
     FM260300 16007KT P6SM SCT006 BKN008
     FM260500 18009KT 6SM BR BKN005
     FM260900 32003KT 3SM BR OVC003
     FM261500 26010KT P6SM BKN015=

USA.gov is the U.S. government's official web portal to all federal, state and local government web resources and services.